sensor_id;sensor_type;location;lat;lon;timestamp;pressure;altitude;pressure_sealevel;temperature;humidity
4199;BME280;2113;50.946;14.610;2023-08-07T09:19:25;52099.38;;;-141.55;64.56
4199;BME280;2113;50.946;14.610;2023-08-07T09:25:14;52141.25;;;-141.55;66.21
4199;BME280;2113;50.946;14.610;2023-08-07T09:27:43;52097.38;;;-141.55;63.66
4199;BME280;2113;50.946;14.610;2023-08-07T09:30:12;52067.47;;;-141.55;63.68
4199;BME280;2113;50.946;14.610;2023-08-07T09:32:42;52077.44;;;-141.55;63.22
4199;BME280;2113;50.946;14.610;2023-08-07T09:35:13;52067.47;;;-141.55;60.57
4199;BME280;2113;50.946;14.610;2023-08-07T09:37:52;52013.63;;;-141.55;62.14
4199;BME280;2113;50.946;14.610;2023-08-07T09:40:21;52085.41;;;-141.55;60.14
4199;BME280;2113;50.946;14.610;2023-08-07T09:42:54;52105.34;;;-141.55;63.05
4199;BME280;2113;50.946;14.610;2023-08-07T09:45:23;52121.31;;;-141.55;65.32
4199;BME280;2113;50.946;14.610;2023-08-07T09:48:00;52085.41;;;-141.55;65.13
4199;BME280;2113;50.946;14.610;2023-08-07T09:50:31;52041.53;;;-141.55;60.88
4199;BME280;2113;50.946;14.610;2023-08-07T09:52:59;52073.44;;;-141.55;62.06
4199;BME280;2113;50.946;14.610;2023-08-07T09:55:27;52079.44;;;-141.55;61.47
4199;BME280;2113;50.946;14.610;2023-08-07T10:23:17;52105.34;;;-141.55;68.59
4199;BME280;2113;50.946;14.610;2023-08-07T10:25:46;52135.28;;;-141.55;71.60
4199;BME280;2113;50.946;14.610;2023-08-07T10:28:17;52153.22;;;-141.55;72.30
4199;BME280;2113;50.946;14.610;2023-08-07T10:30:46;52105.34;;;-141.55;72.68
4199;BME280;2113;50.946;14.610;2023-08-07T10:33:16;52079.44;;;-141.55;69.69
4199;BME280;2113;50.946;14.610;2023-08-07T10:35:47;52075.44;;;-141.55;67.69
4199;BME280;2113;50.946;14.610;2023-08-07T10:38:19;52087.41;;;-141.55;66.60
4199;BME280;2113;50.946;14.610;2023-08-07T10:41:08;52069.47;;;-141.55;66.41
4199;BME280;2113;50.946;14.610;2023-08-07T10:43:37;52067.47;;;-141.55;64.43
4199;BME280;2113;50.946;14.610;2023-08-07T10:46:09;52033.56;;;-141.55;66.40
4199;BME280;2113;50.946;14.610;2023-08-07T10:48:39;52043.53;;;-141.55;63.48
4199;BME280;2113;50.946;14.610;2023-08-07T10:51:07;52061.47;;;-141.55;64.35
4199;BME280;2113;50.946;14.610;2023-08-07T10:53:40;52039.53;;;-141.55;62.95
4199;BME280;2113;50.946;14.610;2023-08-07T10:56:11;52053.50;;;-141.55;64.37
4199;BME280;2113;50.946;14.610;2023-08-07T10:58:40;52033.56;;;-141.55;63.65
4199;BME280;2113;50.946;14.610;2023-08-07T11:01:26;52035.56;;;-141.55;64.18
4199;BME280;2113;50.946;14.610;2023-08-07T11:03:57;52045.53;;;-141.55;63.70
4199;BME280;2113;50.946;14.610;2023-08-07T11:06:27;52099.38;;;-141.55;64.02
4199;BME280;2113;50.946;14.610;2023-08-07T11:09:00;52125.31;;;-141.55;65.34
4199;BME280;2113;50.946;14.610;2023-08-07T11:11:35;52113.34;;;-141.55;67.34
4199;BME280;2113;50.946;14.610;2023-08-07T11:14:07;52053.50;;;-141.55;65.54
4199;BME280;2113;50.946;14.610;2023-08-07T11:16:36;52061.47;;;-141.55;64.34
4199;BME280;2113;50.946;14.610;2023-08-07T11:19:05;52099.38;;;-141.55;65.78
4199;BME280;2113;50.946;14.610;2023-08-07T11:21:34;52091.41;;;-141.55;64.62
4199;BME280;2113;50.946;14.610;2023-08-07T11:24:05;52149.22;;;-141.55;66.92
4199;BME280;2113;50.946;14.610;2023-08-07T11:26:33;52127.28;;;-141.55;70.28
4199;BME280;2113;50.946;14.610;2023-08-07T11:29:01;52151.22;;;-141.55;71.74
4199;BME280;2113;50.946;14.610;2023-08-07T11:31:30;52177.16;;;-141.55;72.88
4199;BME280;2113;50.946;14.610;2023-08-07T11:33:59;52153.22;;;-141.55;72.94
4199;BME280;2113;50.946;14.610;2023-08-07T11:36:30;52135.28;;;-141.55;74.95
4199;BME280;2113;50.946;14.610;2023-08-07T11:38:59;52169.19;;;-141.55;75.13
4199;BME280;2113;50.946;14.610;2023-08-07T11:41:31;52183.13;;;-141.55;74.71
4199;BME280;2113;50.946;14.610;2023-08-07T11:44:00;52129.28;;;-141.55;75.15
4199;BME280;2113;50.946;14.610;2023-08-07T11:46:28;52145.25;;;-141.55;74.52
4199;BME280;2113;50.946;14.610;2023-08-07T11:48:57;52161.19;;;-141.55;72.73
4199;BME280;2113;50.946;14.610;2023-08-07T11:51:25;52105.34;;;-141.55;72.55
4199;BME280;2113;50.946;14.610;2023-08-07T12:00:14;52127.28;;;-141.55;72.07
4199;BME280;2113;50.946;14.610;2023-08-07T12:02:43;52131.28;;;-141.55;72.83
4199;BME280;2113;50.946;14.610;2023-08-07T12:05:11;52127.28;;;-141.55;73.93
4199;BME280;2113;50.946;14.610;2023-08-07T12:07:40;52105.34;;;-141.55;73.35
4199;BME280;2113;50.946;14.610;2023-08-07T12:10:09;52113.34;;;-141.55;72.84
4199;BME280;2113;50.946;14.610;2023-08-07T12:12:38;52121.31;;;-141.55;71.44
4199;BME280;2113;50.946;14.610;2023-08-07T12:15:08;52091.41;;;-141.55;71.79
4199;BME280;2113;50.946;14.610;2023-08-07T12:17:38;52027.56;;;-141.55;70.61
4199;BME280;2113;50.946;14.610;2023-08-07T12:20:08;52027.56;;;-141.55;67.26
4199;BME280;2113;50.946;14.610;2023-08-07T12:22:37;52037.56;;;-141.55;66.13
4199;BME280;2113;50.946;14.610;2023-08-07T12:25:07;52041.53;;;-141.55;67.32
4199;BME280;2113;50.946;14.610;2023-08-07T12:27:35;52037.56;;;-141.55;65.46
4199;BME280;2113;50.946;14.610;2023-08-07T12:30:05;52063.47;;;-141.55;67.53
4199;BME280;2113;50.946;14.610;2023-08-07T12:32:33;52113.34;;;-141.55;71.09
4199;BME280;2113;50.946;14.610;2023-08-07T12:35:03;52083.41;;;-141.55;70.93
4199;BME280;2113;50.946;14.610;2023-08-07T12:37:38;52077.44;;;-141.55;72.38
4199;BME280;2113;50.946;14.610;2023-08-07T12:40:07;52097.38;;;-141.55;71.83
4199;BME280;2113;50.946;14.610;2023-08-07T12:42:39;52079.44;;;-141.55;68.73
4199;BME280;2113;50.946;14.610;2023-08-07T12:45:08;52055.50;;;-141.55;69.29
4199;BME280;2113;50.946;14.610;2023-08-07T12:47:37;52091.41;;;-141.55;67.38
4199;BME280;2113;50.946;14.610;2023-08-07T12:50:07;52091.41;;;-141.55;67.62
4199;BME280;2113;50.946;14.610;2023-08-07T12:52:36;52071.44;;;-141.55;67.74
4199;BME280;2113;50.946;14.610;2023-08-07T12:55:05;52085.41;;;-141.55;68.30
4199;BME280;2113;50.946;14.610;2023-08-07T12:57:34;52065.47;;;-141.55;67.81
4199;BME280;2113;50.946;14.610;2023-08-07T13:00:03;52111.34;;;-141.55;70.36
4199;BME280;2113;50.946;14.610;2023-08-07T13:02:32;52141.25;;;-141.55;71.71
4199;BME280;2113;50.946;14.610;2023-08-07T13:05:00;52099.38;;;-141.55;72.25
4199;BME280;2113;50.946;14.610;2023-08-07T13:07:30;52113.34;;;-141.55;72.19
4199;BME280;2113;50.946;14.610;2023-08-07T13:09:58;52081.44;;;-141.55;70.76
4199;BME280;2113;50.946;14.610;2023-08-07T13:12:26;52109.34;;;-141.55;70.73
4199;BME280;2113;50.946;14.610;2023-08-07T13:14:54;52117.31;;;-141.55;71.39
4199;BME280;2113;50.946;14.610;2023-08-07T13:17:23;52131.28;;;-141.55;70.57
4199;BME280;2113;50.946;14.610;2023-08-07T13:19:51;52087.41;;;-141.55;70.23
4199;BME280;2113;50.946;14.610;2023-08-07T13:22:19;52057.50;;;-141.55;68.95
4199;BME280;2113;50.946;14.610;2023-08-07T13:24:49;52069.47;;;-141.55;67.53
4199;BME280;2113;50.946;14.610;2023-08-07T13:27:17;52065.47;;;-141.55;67.97
4199;BME280;2113;50.946;14.610;2023-08-07T13:29:47;52085.41;;;-141.55;64.84
4199;BME280;2113;50.946;14.610;2023-08-07T13:32:15;52037.56;;;-141.55;66.43
4199;BME280;2113;50.946;14.610;2023-08-07T13:34:45;52035.56;;;-141.55;65.70
4199;BME280;2113;50.946;14.610;2023-08-07T13:37:13;52073.44;;;-141.55;66.07
4199;BME280;2113;50.946;14.610;2023-08-07T13:39:42;52099.38;;;-141.55;65.18
4199;BME280;2113;50.946;14.610;2023-08-07T13:42:12;52075.44;;;-141.55;67.03
4199;BME280;2113;50.946;14.610;2023-08-07T13:44:40;52105.34;;;-141.55;70.19
4199;BME280;2113;50.946;14.610;2023-08-07T13:47:08;52129.28;;;-141.55;73.71
4199;BME280;2113;50.946;14.610;2023-08-07T13:49:37;52113.34;;;-141.55;74.66
4199;BME280;2113;50.946;14.610;2023-08-07T13:52:06;52061.47;;;-141.55;74.05
4199;BME280;2113;50.946;14.610;2023-08-07T13:54:34;52057.50;;;-141.55;70.58
4199;BME280;2113;50.946;14.610;2023-08-07T13:57:02;52039.53;;;-141.55;70.67
4199;BME280;2113;50.946;14.610;2023-08-07T13:59:32;52041.53;;;-141.55;70.62
4199;BME280;2113;50.946;14.610;2023-08-07T14:02:00;52073.44;;;-141.55;69.42
4199;BME280;2113;50.946;14.610;2023-08-07T14:04:28;52105.34;;;-141.55;70.66
4199;BME280;2113;50.946;14.610;2023-08-07T14:06:57;52073.44;;;-141.55;71.28
4199;BME280;2113;50.946;14.610;2023-08-07T14:09:26;52093.38;;;-141.55;71.21
4199;BME280;2113;50.946;14.610;2023-08-07T14:11:54;52103.38;;;-141.55;73.15
4199;BME280;2113;50.946;14.610;2023-08-07T14:14:24;52127.28;;;-141.55;74.74
4199;BME280;2113;50.946;14.610;2023-08-07T14:16:53;52145.25;;;-141.55;75.75
4199;BME280;2113;50.946;14.610;2023-08-07T14:19:24;52103.38;;;-141.55;75.78
4199;BME280;2113;50.946;14.610;2023-08-07T14:21:53;52089.41;;;-141.55;74.78
4199;BME280;2113;50.946;14.610;2023-08-07T14:24:21;52075.44;;;-141.55;70.97
4199;BME280;2113;50.946;14.610;2023-08-07T14:26:52;52067.47;;;-141.55;70.43
4199;BME280;2113;50.946;14.610;2023-08-07T14:30:10;52017.59;;;-141.55;68.65
4199;BME280;2113;50.946;14.610;2023-08-07T14:32:39;52057.50;;;-141.55;67.68
4199;BME280;2113;50.946;14.610;2023-08-07T14:35:11;52067.47;;;-141.55;68.84
4199;BME280;2113;50.946;14.610;2023-08-07T14:37:40;52091.41;;;-141.55;69.80
4199;BME280;2113;50.946;14.610;2023-08-07T14:40:09;52083.41;;;-141.55;69.72
4199;BME280;2113;50.946;14.610;2023-08-07T14:42:37;52109.34;;;-141.55;71.08
4199;BME280;2113;50.946;14.610;2023-08-07T14:45:06;52085.41;;;-141.55;70.93
4199;BME280;2113;50.946;14.610;2023-08-07T14:47:35;52123.31;;;-141.55;73.15
4199;BME280;2113;50.946;14.610;2023-08-07T14:50:05;52133.28;;;-141.55;76.00
4199;BME280;2113;50.946;14.610;2023-08-07T14:52:34;52149.22;;;-141.55;77.64
4199;BME280;2113;50.946;14.610;2023-08-07T14:55:02;52141.25;;;-141.55;78.77
4199;BME280;2113;50.946;14.610;2023-08-07T14:57:31;52133.28;;;-141.55;79.65
4199;BME280;2113;50.946;14.610;2023-08-07T14:59:59;52153.22;;;-141.55;79.76
4199;BME280;2113;50.946;14.610;2023-08-07T15:02:31;52173.16;;;-141.55;79.38
4199;BME280;2113;50.946;14.610;2023-08-07T15:04:59;52165.19;;;-141.55;80.32
4199;BME280;2113;50.946;14.610;2023-08-07T15:07:29;52117.31;;;-141.55;81.63
4199;BME280;2113;50.946;14.610;2023-08-07T15:09:57;52151.22;;;-141.55;81.70
4199;BME280;2113;50.946;14.610;2023-08-07T15:12:25;52165.19;;;-141.55;81.77
4199;BME280;2113;50.946;14.610;2023-08-07T15:14:53;52111.34;;;-141.55;81.47
4199;BME280;2113;50.946;14.610;2023-08-07T15:17:21;52113.34;;;-141.55;80.87
4199;BME280;2113;50.946;14.610;2023-08-07T15:19:50;52175.16;;;-141.55;81.46
4199;BME280;2113;50.946;14.610;2023-08-07T15:22:18;52145.25;;;-141.55;82.04
4199;BME280;2113;50.946;14.610;2023-08-07T15:24:48;52149.22;;;-141.55;81.49
4199;BME280;2113;50.946;14.610;2023-08-07T15:27:16;52145.25;;;-141.55;81.16
4199;BME280;2113;50.946;14.610;2023-08-07T15:29:45;52149.22;;;-141.55;79.12
4199;BME280;2113;50.946;14.610;2023-08-07T15:32:13;52175.16;;;-141.55;79.26
4199;BME280;2113;50.946;14.610;2023-08-07T15:34:46;52155.22;;;-141.55;78.58
4199;BME280;2113;50.946;14.610;2023-08-07T15:37:14;52125.31;;;-141.55;78.71
4199;BME280;2113;50.946;14.610;2023-08-07T15:39:43;52117.31;;;-141.55;77.74
4199;BME280;2113;50.946;14.610;2023-08-07T15:42:12;52141.25;;;-141.55;77.90
4199;BME280;2113;50.946;14.610;2023-08-07T15:45:07;52147.25;;;-141.55;77.76
4199;BME280;2113;50.946;14.610;2023-08-07T15:47:35;52135.28;;;-141.55;76.26
4199;BME280;2113;50.946;14.610;2023-08-07T15:50:04;52101.38;;;-141.55;77.20
4199;BME280;2113;50.946;14.610;2023-08-07T15:52:33;52089.41;;;-141.55;75.54
4199;BME280;2113;50.946;14.610;2023-08-07T15:55:01;52079.44;;;-141.55;73.92
4199;BME280;2113;50.946;14.610;2023-08-07T15:57:31;52089.41;;;-141.55;73.97
4199;BME280;2113;50.946;14.610;2023-08-07T15:59:59;52091.41;;;-141.55;75.06
4199;BME280;2113;50.946;14.610;2023-08-07T16:02:38;52121.31;;;-141.55;75.11
4199;BME280;2113;50.946;14.610;2023-08-07T16:05:07;52125.31;;;-141.55;76.80
4199;BME280;2113;50.946;14.610;2023-08-07T16:07:35;52159.19;;;-141.55;77.45
4199;BME280;2113;50.946;14.610;2023-08-07T16:10:04;52125.31;;;-141.55;78.41
4199;BME280;2113;50.946;14.610;2023-08-07T16:12:34;52157.22;;;-141.55;78.88
4199;BME280;2113;50.946;14.610;2023-08-07T16:15:21;52161.19;;;-141.55;78.49
4199;BME280;2113;50.946;14.610;2023-08-07T16:18:09;52151.22;;;-141.55;78.92
4199;BME280;2113;50.946;14.610;2023-08-07T16:20:37;52161.19;;;-141.55;79.47
4199;BME280;2113;50.946;14.610;2023-08-07T16:23:06;52125.31;;;-141.55;79.08
4199;BME280;2113;50.946;14.610;2023-08-07T16:25:52;52129.28;;;-141.55;78.13
4199;BME280;2113;50.946;14.610;2023-08-07T16:28:41;52149.22;;;-141.55;76.68
4199;BME280;2113;50.946;14.610;2023-08-07T16:31:09;52159.19;;;-141.55;76.74
4199;BME280;2113;50.946;14.610;2023-08-07T16:33:38;52145.25;;;-141.55;77.36
4199;BME280;2113;50.946;14.610;2023-08-07T16:36:07;52131.28;;;-141.55;76.07
4199;BME280;2113;50.946;14.610;2023-08-07T16:38:35;52123.31;;;-141.55;74.79
4199;BME280;2113;50.946;14.610;2023-08-07T16:41:03;52125.31;;;-141.55;74.78
4199;BME280;2113;50.946;14.610;2023-08-07T16:43:32;52121.31;;;-141.55;74.98
4199;BME280;2113;50.946;14.610;2023-08-07T16:46:01;52165.19;;;-141.55;75.64
4199;BME280;2113;50.946;14.610;2023-08-07T16:48:30;52103.38;;;-141.55;75.99
4199;BME280;2113;50.946;14.610;2023-08-07T16:50:58;52141.25;;;-141.55;77.25
4199;BME280;2113;50.946;14.610;2023-08-07T16:53:41;52149.22;;;-141.55;77.60
4199;BME280;2113;50.946;14.610;2023-08-07T16:56:13;52137.25;;;-141.55;77.43
4199;BME280;2113;50.946;14.610;2023-08-07T16:58:41;52153.22;;;-141.55;76.54
4199;BME280;2113;50.946;14.610;2023-08-07T17:01:13;52165.19;;;-141.55;76.21
4199;BME280;2113;50.946;14.610;2023-08-07T17:03:41;52211.06;;;-141.55;76.68
4199;BME280;2113;50.946;14.610;2023-08-07T17:06:10;52177.16;;;-141.55;77.43
4199;BME280;2113;50.946;14.610;2023-08-07T17:08:38;52163.19;;;-141.55;77.95
4199;BME280;2113;50.946;14.610;2023-08-07T17:11:07;52165.19;;;-141.55;76.72
4199;BME280;2113;50.946;14.610;2023-08-07T17:13:35;52171.16;;;-141.55;75.46
4199;BME280;2113;50.946;14.610;2023-08-07T17:16:04;52197.09;;;-141.55;75.56
4199;BME280;2113;50.946;14.610;2023-08-07T17:18:33;52161.19;;;-141.55;75.60
4199;BME280;2113;50.946;14.610;2023-08-07T17:21:02;52185.13;;;-141.55;76.64
4199;BME280;2113;50.946;14.610;2023-08-07T17:23:30;52169.19;;;-141.55;76.43
4199;BME280;2113;50.946;14.610;2023-08-07T17:25:58;52155.22;;;-141.55;76.83
4199;BME280;2113;50.946;14.610;2023-08-07T17:28:28;52169.19;;;-141.55;76.39
4199;BME280;2113;50.946;14.610;2023-08-07T17:30:58;52161.19;;;-141.55;75.59
4199;BME280;2113;50.946;14.610;2023-08-07T17:33:26;52177.16;;;-141.55;76.43
4199;BME280;2113;50.946;14.610;2023-08-07T17:35:56;52213.06;;;-141.55;77.52
4199;BME280;2113;50.946;14.610;2023-08-07T17:38:25;52165.19;;;-141.55;77.35
4199;BME280;2113;50.946;14.610;2023-08-07T17:40:53;52175.16;;;-141.55;77.36
4199;BME280;2113;50.946;14.610;2023-08-07T17:43:21;52181.13;;;-141.55;78.41
4199;BME280;2113;50.946;14.610;2023-08-07T17:45:50;52165.19;;;-141.55;78.19
4199;BME280;2113;50.946;14.610;2023-08-07T17:48:18;52171.16;;;-141.55;78.14
4199;BME280;2113;50.946;14.610;2023-08-07T17:50:46;52221.03;;;-141.55;78.42
4199;BME280;2113;50.946;14.610;2023-08-07T17:53:16;52181.13;;;-141.55;79.16
4199;BME280;2113;50.946;14.610;2023-08-07T17:55:45;52179.16;;;-141.55;79.97
4199;BME280;2113;50.946;14.610;2023-08-07T17:58:13;52179.16;;;-141.55;79.81
4199;BME280;2113;50.946;14.610;2023-08-07T18:00:42;52193.09;;;-141.55;78.34
4199;BME280;2113;50.946;14.610;2023-08-07T18:03:10;52201.09;;;-141.55;78.23
4199;BME280;2113;50.946;14.610;2023-08-07T18:05:38;52217.03;;;-141.55;79.54
4199;BME280;2113;50.946;14.610;2023-08-07T18:08:07;52199.09;;;-141.55;78.37
4199;BME280;2113;50.946;14.610;2023-08-07T18:10:38;52189.13;;;-141.55;78.31
4199;BME280;2113;50.946;14.610;2023-08-07T18:13:06;52185.13;;;-141.55;77.95
4199;BME280;2113;50.946;14.610;2023-08-07T18:15:34;52209.06;;;-141.55;78.79
4199;BME280;2113;50.946;14.610;2023-08-07T18:18:03;52207.06;;;-141.55;79.01
4199;BME280;2113;50.946;14.610;2023-08-07T18:20:31;52213.06;;;-141.55;79.49
4199;BME280;2113;50.946;14.610;2023-08-07T18:22:59;52235.00;;;-141.55;78.47
4199;BME280;2113;50.946;14.610;2023-08-07T18:25:28;52179.16;;;-141.55;78.75
4199;BME280;2113;50.946;14.610;2023-08-07T18:27:57;52236.97;;;-141.55;79.66
4199;BME280;2113;50.946;14.610;2023-08-07T18:30:26;52201.09;;;-141.55;79.56
4199;BME280;2113;50.946;14.610;2023-08-07T18:32:54;52203.06;;;-141.55;79.38
4199;BME280;2113;50.946;14.610;2023-08-07T18:35:23;52169.19;;;-141.55;79.25
4199;BME280;2113;50.946;14.610;2023-08-07T18:37:51;52191.13;;;-141.55;79.39
4199;BME280;2113;50.946;14.610;2023-08-07T18:40:19;52173.16;;;-141.55;79.29
4199;BME280;2113;50.946;14.610;2023-08-07T18:42:47;52217.03;;;-141.55;79.33
4199;BME280;2113;50.946;14.610;2023-08-07T18:45:17;52217.03;;;-141.55;79.67
4199;BME280;2113;50.946;14.610;2023-08-07T18:47:46;52221.03;;;-141.55;80.26
4199;BME280;2113;50.946;14.610;2023-08-07T18:50:14;52193.09;;;-141.55;80.08
4199;BME280;2113;50.946;14.610;2023-08-07T18:52:43;52209.06;;;-141.55;80.46
4199;BME280;2113;50.946;14.610;2023-08-07T18:55:11;52215.03;;;-141.55;81.01
4199;BME280;2113;50.946;14.610;2023-08-07T18:57:39;52211.06;;;-141.55;80.91
4199;BME280;2113;50.946;14.610;2023-08-07T19:00:09;52227.00;;;-141.55;81.24
4199;BME280;2113;50.946;14.610;2023-08-07T19:02:39;52233.00;;;-141.55;81.88
4199;BME280;2113;50.946;14.610;2023-08-07T19:05:08;52213.06;;;-141.55;82.16
4199;BME280;2113;50.946;14.610;2023-08-07T19:07:36;52231.00;;;-141.55;81.80
4199;BME280;2113;50.946;14.610;2023-08-07T19:10:05;52207.06;;;-141.55;82.04
4199;BME280;2113;50.946;14.610;2023-08-07T19:12:34;52244.97;;;-141.55;82.11
4199;BME280;2113;50.946;14.610;2023-08-07T19:15:03;52221.03;;;-141.55;81.53
4199;BME280;2113;50.946;14.610;2023-08-07T19:17:32;52225.00;;;-141.55;81.09
4199;BME280;2113;50.946;14.610;2023-08-07T19:20:02;52181.13;;;-141.55;80.90
4199;BME280;2113;50.946;14.610;2023-08-07T19:22:31;52201.09;;;-141.55;80.97
4199;BME280;2113;50.946;14.610;2023-08-07T19:24:59;52197.09;;;-141.55;80.68
4199;BME280;2113;50.946;14.610;2023-08-07T19:27:27;52252.94;;;-141.55;80.80
4199;BME280;2113;50.946;14.610;2023-08-07T19:29:56;52195.09;;;-141.55;80.39
4199;BME280;2113;50.946;14.610;2023-08-07T19:32:25;52181.13;;;-141.55;80.46
4199;BME280;2113;50.946;14.610;2023-08-07T19:34:54;52248.94;;;-141.55;80.26
4199;BME280;2113;50.946;14.610;2023-08-07T19:37:24;52213.06;;;-141.55;81.18
4199;BME280;2113;50.946;14.610;2023-08-07T19:39:52;52260.91;;;-141.55;81.20
4199;BME280;2113;50.946;14.610;2023-08-07T19:42:21;52244.97;;;-141.55;81.76
4199;BME280;2113;50.946;14.610;2023-08-07T19:44:49;52209.06;;;-141.55;81.74
4199;BME280;2113;50.946;14.610;2023-08-07T19:47:17;52217.03;;;-141.55;81.78
4199;BME280;2113;50.946;14.610;2023-08-07T19:50:01;52209.06;;;-141.55;82.05
4199;BME280;2113;50.946;14.610;2023-08-07T19:52:31;52183.13;;;-141.55;81.98
4199;BME280;2113;50.946;14.610;2023-08-07T19:54:59;52215.03;;;-141.55;82.23
4199;BME280;2113;50.946;14.610;2023-08-07T19:57:29;52193.09;;;-141.55;82.03
4199;BME280;2113;50.946;14.610;2023-08-07T19:59:57;52205.06;;;-141.55;81.42
4199;BME280;2113;50.946;14.610;2023-08-07T20:02:31;52250.94;;;-141.55;81.31
4199;BME280;2113;50.946;14.610;2023-08-07T20:05:01;52203.06;;;-141.55;81.06
4199;BME280;2113;50.946;14.610;2023-08-07T20:07:32;52195.09;;;-141.55;81.48
4199;BME280;2113;50.946;14.610;2023-08-07T20:10:00;52215.03;;;-141.55;81.36
4199;BME280;2113;50.946;14.610;2023-08-07T20:12:31;52227.00;;;-141.55;80.75
4199;BME280;2113;50.946;14.610;2023-08-07T20:15:00;52248.94;;;-141.55;80.97
4199;BME280;2113;50.946;14.610;2023-08-07T20:17:29;52215.03;;;-141.55;80.64
4199;BME280;2113;50.946;14.610;2023-08-07T20:19:58;52223.03;;;-141.55;80.27
4199;BME280;2113;50.946;14.610;2023-08-07T20:22:26;52197.09;;;-141.55;80.44
4199;BME280;2113;50.946;14.610;2023-08-07T20:24:56;52225.00;;;-141.55;80.13
4199;BME280;2113;50.946;14.610;2023-08-07T20:27:25;52238.97;;;-141.55;79.86
4199;BME280;2113;50.946;14.610;2023-08-07T20:29:53;52197.09;;;-141.55;79.82
4199;BME280;2113;50.946;14.610;2023-08-07T20:32:22;52246.97;;;-141.55;80.24
4199;BME280;2113;50.946;14.610;2023-08-07T20:34:50;52209.06;;;-141.55;79.93
4199;BME280;2113;50.946;14.610;2023-08-07T20:37:18;52240.97;;;-141.55;79.34
4199;BME280;2113;50.946;14.610;2023-08-07T20:39:47;52201.09;;;-141.55;79.68
4199;BME280;2113;50.946;14.610;2023-08-07T20:42:17;52205.06;;;-141.55;79.17
4199;BME280;2113;50.946;14.610;2023-08-07T20:44:46;52244.97;;;-141.55;79.13
4199;BME280;2113;50.946;14.610;2023-08-07T20:47:14;52213.06;;;-141.55;79.34
4199;BME280;2113;50.946;14.610;2023-08-07T20:49:43;52236.97;;;-141.55;79.02
4199;BME280;2113;50.946;14.610;2023-08-07T20:52:11;52211.06;;;-141.55;78.29
4199;BME280;2113;50.946;14.610;2023-08-07T20:54:40;52185.13;;;-141.55;78.33
4199;BME280;2113;50.946;14.610;2023-08-07T20:57:08;52256.94;;;-141.55;78.31
4199;BME280;2113;50.946;14.610;2023-08-07T20:59:38;52229.00;;;-141.55;77.85
4199;BME280;2113;50.946;14.610;2023-08-07T21:02:06;52185.13;;;-141.55;78.05
4199;BME280;2113;50.946;14.610;2023-08-07T21:04:49;52217.03;;;-141.55;78.40
4199;BME280;2113;50.946;14.610;2023-08-07T21:07:17;52219.03;;;-141.55;78.55
4199;BME280;2113;50.946;14.610;2023-08-07T21:09:46;52195.09;;;-141.55;78.50
4199;BME280;2113;50.946;14.610;2023-08-07T21:12:14;52223.03;;;-141.55;79.10
4199;BME280;2113;50.946;14.610;2023-08-07T21:14:44;52217.03;;;-141.55;79.44
4199;BME280;2113;50.946;14.610;2023-08-07T21:17:12;52233.00;;;-141.55;79.80
4199;BME280;2113;50.946;14.610;2023-08-07T21:19:40;52217.03;;;-141.55;80.38
4199;BME280;2113;50.946;14.610;2023-08-07T21:22:08;52250.94;;;-141.55;80.76
4199;BME280;2113;50.946;14.610;2023-08-07T21:24:37;52260.91;;;-141.55;80.98
4199;BME280;2113;50.946;14.610;2023-08-07T21:27:05;52221.03;;;-141.55;81.32
4199;BME280;2113;50.946;14.610;2023-08-07T21:29:33;52229.00;;;-141.55;80.90
4199;BME280;2113;50.946;14.610;2023-08-07T21:32:04;52236.97;;;-141.55;80.14
4199;BME280;2113;50.946;14.610;2023-08-07T21:34:32;52240.97;;;-141.55;79.77
4199;BME280;2113;50.946;14.610;2023-08-07T21:37:00;52268.88;;;-141.55;79.06
4199;BME280;2113;50.946;14.610;2023-08-07T21:39:30;52225.00;;;-141.55;79.37
4199;BME280;2113;50.946;14.610;2023-08-07T21:41:59;52231.00;;;-141.55;79.32
4199;BME280;2113;50.946;14.610;2023-08-07T21:44:27;52183.13;;;-141.55;79.49
4199;BME280;2113;50.946;14.610;2023-08-07T21:46:55;52240.97;;;-141.55;79.57
4199;BME280;2113;50.946;14.610;2023-08-07T21:49:25;52235.00;;;-141.55;79.34
4199;BME280;2113;50.946;14.610;2023-08-07T21:51:53;52236.97;;;-141.55;79.17
4199;BME280;2113;50.946;14.610;2023-08-07T21:54:22;52236.97;;;-141.55;79.15
4199;BME280;2113;50.946;14.610;2023-08-07T21:56:51;52233.00;;;-141.55;79.23
4199;BME280;2113;50.946;14.610;2023-08-07T21:59:19;52240.97;;;-141.55;78.81
4199;BME280;2113;50.946;14.610;2023-08-07T22:01:47;52246.97;;;-141.55;79.06
4199;BME280;2113;50.946;14.610;2023-08-07T22:04:16;52199.09;;;-141.55;78.88
4199;BME280;2113;50.946;14.610;2023-08-07T22:06:45;52238.97;;;-141.55;78.94
4199;BME280;2113;50.946;14.610;2023-08-07T22:09:14;52217.03;;;-141.55;78.24
4199;BME280;2113;50.946;14.610;2023-08-07T22:11:42;52235.00;;;-141.55;78.61
4199;BME280;2113;50.946;14.610;2023-08-07T22:14:10;52248.94;;;-141.55;78.78
4199;BME280;2113;50.946;14.610;2023-08-07T22:16:38;52246.97;;;-141.55;79.21
4199;BME280;2113;50.946;14.610;2023-08-07T22:19:07;52233.00;;;-141.55;79.73
4199;BME280;2113;50.946;14.610;2023-08-07T22:21:35;52268.88;;;-141.55;79.92
4199;BME280;2113;50.946;14.610;2023-08-07T22:24:08;52250.94;;;-141.55;80.42
4199;BME280;2113;50.946;14.610;2023-08-07T22:26:36;52236.97;;;-141.55;80.30
4199;BME280;2113;50.946;14.610;2023-08-07T22:29:05;52262.91;;;-141.55;80.41
4199;BME280;2113;50.946;14.610;2023-08-07T22:31:33;52229.00;;;-141.55;80.61
4199;BME280;2113;50.946;14.610;2023-08-07T22:34:01;52246.97;;;-141.55;80.55
4199;BME280;2113;50.946;14.610;2023-08-07T22:36:30;52213.06;;;-141.55;80.47
4199;BME280;2113;50.946;14.610;2023-08-07T22:38:58;52233.00;;;-141.55;80.32
4199;BME280;2113;50.946;14.610;2023-08-07T22:41:28;52231.00;;;-141.55;80.29
4199;BME280;2113;50.946;14.610;2023-08-07T22:43:59;52266.91;;;-141.55;80.07
4199;BME280;2113;50.946;14.610;2023-08-07T22:46:28;52256.94;;;-141.55;79.82
4199;BME280;2113;50.946;14.610;2023-08-07T22:48:56;52235.00;;;-141.55;79.73
4199;BME280;2113;50.946;14.610;2023-08-07T22:51:24;52207.06;;;-141.55;79.44
4199;BME280;2113;50.946;14.610;2023-08-07T22:53:53;52221.03;;;-141.55;79.82
4199;BME280;2113;50.946;14.610;2023-08-07T22:56:21;52236.97;;;-141.55;79.26